Time;durP1;ratioP1;P1;durP2;ratioP2;P2;SDS_P1;SDS_P2;PMS_P1;PMS_P2;Temp;Humidity;BMP_temperature;BMP_pressure;BME280_temperature;BME280_humidity;BME280_pressure;Samples;Min_cycle;Max_cycle;Signal;HPM_P1;HPM_P2
2021/09/14 00:01:58;;;;;;;18.70;12.32;;;;;;;13.49;98.29;95601.72;5056024;28;20098;-76
2021/09/14 00:04:23;;;;;;;18.60;12.10;;;;;;;13.67;97.86;95592.97;5051487;28;20045;-77
2021/09/14 00:06:49;;;;;;;20.02;12.25;;;;;;;13.60;96.89;95597.84;5051300;28;20048;-77
2021/09/14 00:09:14;;;;;;;19.15;12.10;;;;;;;13.43;97.35;95586.97;5056065;28;20064;-77
2021/09/14 00:11:40;;;;;;;21.70;12.30;;;;;;;13.36;97.57;95597.13;5069142;28;20040;-77
2021/09/14 00:14:06;;;;;;;20.48;11.90;;;;;;;13.29;98.04;95598.22;5070136;28;20067;-76
2021/09/14 00:16:33;;;;;;;23.17;12.10;;;;;;;13.21;98.77;95596.22;5071120;28;20561;-76
2021/09/14 00:18:58;;;;;;;20.27;12.35;;;;;;;13.18;99.23;95594.91;5067315;28;20041;-77
2021/09/14 00:21:24;;;;;;;18.65;12.52;;;;;;;13.11;99.76;95585.78;5050759;28;20114;-77
2021/09/14 00:23:50;;;;;;;21.55;12.35;;;;;;;13.15;99.97;95592.06;5065304;28;20094;-76
2021/09/14 00:26:16;;;;;;;19.27;11.70;;;;;;;13.15;98.72;95582.28;5049961;28;20514;-77
2021/09/14 00:28:41;;;;;;;24.30;11.68;;;;;;;13.28;97.82;95591.38;5049608;28;20037;-77
2021/09/14 00:31:07;;;;;;;20.25;11.35;;;;;;;13.38;97.13;95579.13;5049403;28;20052;-76
2021/09/14 00:33:32;;;;;;;18.98;10.70;;;;;;;13.29;96.96;95587.66;5061178;28;20052;-77
2021/09/14 00:35:58;;;;;;;17.27;11.40;;;;;;;13.27;97.16;95579.22;5068804;28;20044;-76
2021/09/14 00:38:23;;;;;;;17.85;11.77;;;;;;;13.23;97.69;95583.50;5063034;28;20052;-77
2021/09/14 00:40:49;;;;;;;18.30;11.50;;;;;;;13.27;97.82;95579.22;5064129;28;20463;-76
2021/09/14 00:43:22;;;;;;;20.35;12.00;;;;;;;13.19;98.35;95587.78;5070767;28;20041;-77
2021/09/14 00:45:49;;;;;;;16.88;11.80;;;;;;;13.14;98.22;95574.63;5065855;28;20047;-77
2021/09/14 00:48:15;;;;;;;19.55;11.40;;;;;;;13.20;98.56;95578.78;5058233;28;20036;-76
2021/09/14 00:50:42;;;;;;;19.73;11.57;;;;;;;13.14;99.24;95579.91;5068499;28;20044;-77
2021/09/14 00:53:08;;;;;;;16.88;11.07;;;;;;;13.13;98.51;95573.84;5050723;28;20052;-76
2021/09/14 00:55:33;;;;;;;19.08;11.65;;;;;;;13.12;98.25;95577.56;5050560;28;20049;-77
2021/09/14 00:57:59;;;;;;;19.60;11.63;;;;;;;13.02;99.35;95571.63;5064574;28;20036;-77
2021/09/14 01:00:24;;;;;;;18.60;11.75;;;;;;;13.03;98.90;95573.19;5070394;28;20074;-77
2021/09/14 01:02:50;;;;;;;19.23;11.63;;;;;;;13.07;98.14;95568.91;5058595;28;20501;-77
2021/09/14 01:05:16;;;;;;;19.98;11.63;;;;;;;13.07;98.35;95567.03;5058107;28;20041;-77
2021/09/14 01:07:42;;;;;;;18.52;11.95;;;;;;;13.08;98.21;95567.84;5063834;28;20741;-77
2021/09/14 01:10:11;;;;;;;17.73;11.10;;;;;;;12.99;98.46;95568.47;5050367;28;20049;-77
2021/09/14 01:12:38;;;;;;;20.10;12.10;;;;;;;12.93;98.47;95564.31;5050338;28;20048;-78
2021/09/14 01:15:04;;;;;;;19.98;11.45;;;;;;;12.92;98.58;95562.75;5050110;28;20051;-77
2021/09/14 01:17:29;;;;;;;17.27;11.35;;;;;;;12.96;98.32;95562.97;5059788;28;20051;-77
2021/09/14 01:19:55;;;;;;;16.98;11.30;;;;;;;12.97;97.77;95559.25;5059747;28;20048;-77
2021/09/14 01:22:25;;;;;;;18.50;11.00;;;;;;;12.86;97.83;95552.50;5049918;28;20055;-77
2021/09/14 01:24:51;;;;;;;17.70;11.02;;;;;;;12.76;98.89;95553.44;5049598;28;20045;-77
2021/09/14 01:27:17;;;;;;;18.13;11.82;;;;;;;12.79;98.86;95552.88;5049505;28;20068;-77
2021/09/14 01:32:26;;;;;;;18.13;11.65;;;;;;;12.81;98.45;95558.66;5068338;28;20051;-77
2021/09/14 01:34:52;;;;;;;16.88;10.93;;;;;;;12.78;98.54;95552.06;5062423;28;20558;-76
2021/09/14 01:37:17;;;;;;;20.90;11.10;;;;;;;12.71;98.85;95556.91;5048212;28;20438;-77
2021/09/14 01:39:43;;;;;;;17.40;10.93;;;;;;;12.70;98.01;95555.34;5050745;28;20047;-77
2021/09/14 01:42:09;;;;;;;18.45;11.05;;;;;;;12.65;97.77;95561.44;5064581;28;20501;-77
2021/09/14 01:44:34;;;;;;;15.75;10.73;;;;;;;12.68;96.97;95561.97;5065619;28;20116;-77
2021/09/14 01:47:00;;;;;;;18.48;10.48;;;;;;;12.60;97.65;95563.38;5046925;28;20040;-77
2021/09/14 01:49:25;;;;;;;17.80;10.60;;;;;;;12.50;98.42;95561.63;5063744;28;20056;-77
2021/09/14 01:51:51;;;;;;;17.08;11.07;;;;;;;12.47;98.09;95565.63;5049015;28;20507;-77
2021/09/14 01:54:16;;;;;;;18.73;10.73;;;;;;;12.48;97.46;95563.75;5063762;28;20654;-77
2021/09/14 01:56:42;;;;;;;16.83;10.15;;;;;;;12.47;98.06;95564.84;5050047;28;20048;-77
2021/09/14 01:59:08;;;;;;;15.95;10.27;;;;;;;12.52;97.96;95564.78;5047899;28;20072;-77
2021/09/14 02:01:43;;;;;;;17.25;10.52;;;;;;;12.51;98.69;95568.47;5067936;28;20125;-77
2021/09/14 02:04:22;;;;;;;17.77;11.45;;;;;;;12.33;99.21;95566.56;5051074;28;20519;-77
2021/09/14 02:45:04;;;;;;;18.50;9.80;;;;;;;12.35;97.59;95570.47;5067309;28;20094;-78
2021/09/14 02:58:42;;;;;;;17.50;10.25;;;;;;;12.11;98.61;95565.16;5048142;28;20120;-77
2021/09/14 03:01:09;;;;;;;20.23;9.93;;;;;;;12.11;98.23;95562.50;5047068;28;20045;-76
2021/09/14 03:03:37;;;;;;;15.50;10.32;;;;;;;12.08;99.08;95560.44;5050829;28;20037;-77
2021/09/14 03:06:02;;;;;;;23.55;10.52;;;;;;;11.82;99.11;95557.97;5068158;28;20129;-77
2021/09/14 03:08:28;;;;;;;14.43;9.77;;;;;;;11.89;99.38;95553.16;5067695;28;20494;-77
2021/09/14 03:10:54;;;;;;;15.95;10.23;;;;;;;12.03;98.23;95550.72;5076073;28;20044;-77
2021/09/14 03:13:19;;;;;;;14.18;9.77;;;;;;;11.90;97.99;95549.47;5048195;28;20095;-77
2021/09/14 03:15:45;;;;;;;17.30;9.48;;;;;;;11.84;98.42;95550.59;5048027;28;20120;-77
2021/09/14 03:18:10;;;;;;;15.48;10.10;;;;;;;11.82;99.04;95557.97;5046641;28;20064;-78
2021/09/14 03:20:36;;;;;;;13.95;9.73;;;;;;;11.81;99.34;95559.06;5047726;28;20041;-77
2021/09/14 03:23:02;;;;;;;16.13;10.05;;;;;;;11.94;98.77;95561.06;5054036;28;20174;-76
2021/09/14 03:25:28;;;;;;;18.50;10.38;;;;;;;11.98;98.01;95565.78;5067740;28;20044;-77
2021/09/14 03:27:53;;;;;;;14.85;9.60;;;;;;;11.94;98.00;95550.53;5063041;28;20044;-77
2021/09/14 03:30:19;;;;;;;18.40;9.50;;;;;;;11.87;98.06;95555.31;5066431;28;20045;-77
2021/09/14 03:32:44;;;;;;;17.27;9.93;;;;;;;11.85;98.47;95546.91;5052840;28;20045;-77
2021/09/14 03:35:10;;;;;;;14.23;9.40;;;;;;;11.97;97.45;95549.19;5048018;28;20411;-77
2021/09/14 03:37:36;;;;;;;15.40;9.77;;;;;;;11.89;97.48;95550.53;5051374;28;20047;-77
2021/09/14 03:40:02;;;;;;;18.20;9.35;;;;;;;11.72;98.41;95552.78;5047501;28;20045;-77
2021/09/14 03:42:28;;;;;;;16.85;10.13;;;;;;;11.50;99.35;95546.06;5048267;28;20475;-77
2021/09/14 03:44:53;;;;;;;14.02;9.32;;;;;;;11.66;98.22;95538.06;5058391;28;20036;-77
2021/09/14 03:47:19;;;;;;;16.80;9.32;;;;;;;11.70;98.19;95539.09;5066263;28;20418;-77
2021/09/14 03:49:44;;;;;;;13.82;9.02;;;;;;;11.64;98.16;95543.63;5053622;28;20247;-77
2021/09/14 03:52:10;;;;;;;22.67;10.50;;;;;;;11.64;98.22;95540.16;5047288;28;20041;-77
2021/09/14 03:54:35;;;;;;;14.68;9.52;;;;;;;11.83;97.46;95538.44;5047231;28;20045;-77
2021/09/14 03:57:01;;;;;;;14.02;9.38;;;;;;;11.68;98.11;95541.19;5047636;28;20525;-77
2021/09/14 03:59:27;;;;;;;19.20;9.27;;;;;;;11.86;97.48;95539.75;5049831;28;20047;-77
2021/09/14 04:01:55;;;;;;;15.35;9.43;;;;;;;11.85;97.66;95544.25;5047160;28;20041;-77
2021/09/14 04:04:28;;;;;;;15.05;9.10;;;;;;;11.67;97.43;95535.16;5047327;28;20047;-76
2021/09/14 04:07:09;;;;;;;15.43;9.52;;;;;;;11.58;97.99;95527.06;5065033;28;20044;-77
2021/09/14 04:09:35;;;;;;;16.05;9.30;;;;;;;11.65;97.78;95529.38;5067532;28;20045;-76
2021/09/14 04:12:01;;;;;;;16.73;9.38;;;;;;;11.52;97.87;95522.88;5055783;28;20040;-77
2021/09/14 04:14:29;;;;;;;14.07;9.15;;;;;;;11.33;99.06;95532.50;5056843;28;20044;-77
2021/09/14 04:16:54;;;;;;;17.70;9.77;;;;;;;11.32;100.00;95528.28;5070046;28;20123;-77
2021/09/14 04:19:20;;;;;;;16.88;9.05;;;;;;;11.41;98.66;95537.19;5068027;28;20128;-77
2021/09/14 04:21:46;;;;;;;14.38;8.85;;;;;;;11.37;99.38;95536.16;5049304;28;20552;-77
2021/09/14 04:24:12;;;;;;;13.85;9.73;;;;;;;11.18;99.72;95538.66;5050301;28;20076;-77
2021/09/14 04:26:38;;;;;;;16.30;9.82;;;;;;;11.15;99.94;95539.97;5050893;28;20417;-77
2021/09/14 04:29:04;;;;;;;17.55;9.68;;;;;;;11.35;98.56;95533.78;5065138;28;20045;-77
2021/09/14 04:31:29;;;;;;;14.70;9.40;;;;;;;11.21;98.53;95536.25;5064759;28;20478;-77
2021/09/14 04:33:55;;;;;;;16.65;9.70;;;;;;;11.27;98.90;95537.00;5049410;28;20120;-77
2021/09/14 04:36:21;;;;;;;14.77;9.38;;;;;;;11.21;99.09;95538.88;5049270;28;20556;-77
2021/09/14 04:38:46;;;;;;;15.52;10.32;;;;;;;11.24;99.20;95533.06;5050505;28;20904;-77
2021/09/14 04:41:12;;;;;;;18.73;9.93;;;;;;;11.37;98.65;95538.78;5048441;28;20541;-77
2021/09/14 04:43:37;;;;;;;17.90;10.32;;;;;;;11.33;98.39;95535.91;5062624;28;20058;-76
2021/09/14 04:46:04;;;;;;;14.20;9.55;;;;;;;11.13;98.89;95542.06;5069906;28;20044;-77
2021/09/14 04:48:30;;;;;;;15.77;9.73;;;;;;;11.13;99.35;95539.44;5052111;28;20045;-77
2021/09/14 04:50:55;;;;;;;16.13;10.18;;;;;;;11.23;98.92;95539.41;5049707;28;20052;-77
2021/09/14 04:53:21;;;;;;;19.05;10.30;;;;;;;11.32;98.35;95549.34;5057890;28;20537;-77
2021/09/14 04:55:46;;;;;;;17.77;10.00;;;;;;;11.04;99.59;95548.97;5070177;28;20505;-77
2021/09/14 04:58:12;;;;;;;19.80;10.13;;;;;;;10.99;100.00;95552.44;5069237;28;20053;-77
2021/09/14 05:00:37;;;;;;;18.25;9.95;;;;;;;10.99;99.72;95547.16;5061604;28;20090;-77
2021/09/14 05:03:03;;;;;;;17.60;10.63;;;;;;;10.95;100.00;95545.31;5050240;28;20045;-77
2021/09/14 05:05:29;;;;;;;16.52;10.20;;;;;;;10.92;100.00;95546.66;5057808;28;20048;-77
2021/09/14 05:07:54;;;;;;;14.90;9.73;;;;;;;10.98;99.77;95544.81;5065433;28;20041;-77
2021/09/14 05:10:20;;;;;;;15.02;9.65;;;;;;;11.00;99.33;95548.72;5067698;28;20072;-77
2021/09/14 05:12:46;;;;;;;20.63;10.88;;;;;;;11.09;100.00;95543.66;5061279;28;20043;-77
2021/09/14 05:15:11;;;;;;;16.65;9.98;;;;;;;11.13;100.00;95539.44;5060238;28;20044;-76
2021/09/14 05:17:37;;;;;;;18.45;10.45;;;;;;;11.14;100.00;95538.38;5058343;28;20135;-76
2021/09/14 05:20:04;;;;;;;16.55;9.93;;;;;;;11.14;99.98;95541.03;5058290;28;20518;-76
2021/09/14 05:22:34;;;;;;;17.10;10.30;;;;;;;11.20;100.00;95542.56;5068427;28;20691;-77
2021/09/14 05:25:00;;;;;;;16.75;9.70;;;;;;;11.20;99.96;95539.91;5054249;28;20391;-77
2021/09/14 05:27:26;;;;;;;16.15;9.60;;;;;;;11.27;100.00;95535.13;5050047;28;20743;-77
2021/09/14 05:29:51;;;;;;;15.88;9.25;;;;;;;11.25;100.00;95539.91;5048290;28;20041;-77
2021/09/14 05:32:17;;;;;;;21.55;9.77;;;;;;;11.31;100.00;95542.53;5049926;28;20125;-77
2021/09/14 05:34:45;;;;;;;15.55;10.07;;;;;;;11.25;100.00;95534.63;5048174;28;20099;-76
2021/09/14 05:37:11;;;;;;;19.05;10.30;;;;;;;11.32;100.00;95542.25;5061111;28;20565;-75
2021/09/14 05:39:36;;;;;;;16.08;10.13;;;;;;;11.39;100.00;95539.28;5061592;28;20045;-76
2021/09/14 05:42:02;;;;;;;20.52;10.38;;;;;;;11.45;100.00;95543.50;5066863;28;20044;-75
2021/09/14 05:44:27;;;;;;;17.15;10.43;;;;;;;11.49;100.00;95539.22;5056179;28;20045;-76
2021/09/14 05:46:53;;;;;;;20.02;10.52;;;;;;;11.52;100.00;95543.97;5069252;28;20036;-76
2021/09/14 05:49:19;;;;;;;19.98;10.93;;;;;;;11.59;100.00;95543.63;5056474;28;20040;-75
2021/09/14 05:51:44;;;;;;;15.35;9.45;;;;;;;11.67;100.00;95539.66;5068776;28;20410;-76
2021/09/14 05:54:10;;;;;;;15.02;9.65;;;;;;;11.76;100.00;95544.03;5052246;28;20048;-76
2021/09/14 05:56:35;;;;;;;20.15;10.73;;;;;;;11.84;100.00;95540.03;5048556;28;20106;-76
2021/09/14 05:59:01;;;;;;;15.25;9.27;;;;;;;11.88;100.00;95546.34;5059184;28;20071;-75
2021/09/14 06:01:28;;;;;;;17.73;10.40;;;;;;;11.94;100.00;95550.53;5053141;28;20075;-75
2021/09/14 06:03:54;;;;;;;16.48;10.40;;;;;;;11.98;100.00;95539.41;5062461;28;20036;-82
2021/09/14 06:06:20;;;;;;;18.70;10.48;;;;;;;12.06;100.00;95547.53;5057932;28;20040;-74
2021/09/14 06:08:46;;;;;;;18.38;10.13;;;;;;;12.09;100.00;95546.97;5048542;28;20041;-75
2021/09/14 06:11:12;;;;;;;17.70;10.85;;;;;;;12.11;100.00;95541.41;5048489;28;20056;-75
2021/09/14 06:13:37;;;;;;;19.42;11.18;;;;;;;12.22;100.00;95545.53;5047478;28;20561;-75
2021/09/14 06:16:03;;;;;;;18.55;10.48;;;;;;;12.30;100.00;95552.84;5047255;28;20048;-76
2021/09/14 06:18:29;;;;;;;16.92;11.07;;;;;;;12.38;100.00;95546.16;5049042;28;20072;-76
2021/09/14 06:20:55;;;;;;;16.40;10.30;;;;;;;12.43;100.00;95551.41;5048886;28;20079;-76
2021/09/14 06:23:21;;;;;;;17.73;10.43;;;;;;;12.44;100.00;95552.19;5047686;28;20029;-76
2021/09/14 06:25:47;;;;;;;19.25;9.63;;;;;;;12.49;100.00;95554.78;5048572;28;20044;-76
2021/09/14 06:28:13;;;;;;;17.30;11.23;;;;;;;12.70;100.00;95549.25;5048463;28;20037;-75
2021/09/14 06:30:38;;;;;;;23.45;11.93;;;;;;;13.10;100.00;95560.41;5047951;28;20052;-75
2021/09/14 06:33:04;;;;;;;18.17;10.90;;;;;;;13.05;100.00;95560.50;5047534;28;20041;-76
2021/09/14 06:35:30;;;;;;;22.48;12.20;;;;;;;13.28;100.00;95557.00;5048225;28;20037;-75
2021/09/14 06:37:55;;;;;;;17.48;10.23;;;;;;;13.25;100.00;95554.16;5046846;28;20499;-75
2021/09/14 06:40:21;;;;;;;24.05;12.00;;;;;;;13.48;100.00;95557.84;5047956;28;20052;-75
2021/09/14 06:42:46;;;;;;;21.40;11.00;;;;;;;13.53;100.00;95555.09;5048296;28;20071;-76
2021/09/14 06:45:12;;;;;;;19.85;10.90;;;;;;;13.68;100.00;95562.81;5049166;28;20041;-76
2021/09/14 06:47:37;;;;;;;19.52;11.20;;;;;;;13.72;100.00;95562.25;5048082;28;20399;-76
2021/09/14 06:50:04;;;;;;;17.25;10.60;;;;;;;13.76;100.00;95563.25;5047812;28;20146;-76
2021/09/14 06:52:30;;;;;;;19.17;10.45;;;;;;;13.88;100.00;95566.25;5048046;28;20052;-76
2021/09/14 06:54:55;;;;;;;20.17;11.90;;;;;;;13.95;100.00;95565.84;5049025;28;20043;-76
2021/09/14 06:57:21;;;;;;;21.80;10.48;;;;;;;13.97;100.00;95564.50;5048214;28;20045;-75
2021/09/14 06:59:47;;;;;;;19.23;10.73;;;;;;;13.98;100.00;95571.38;5048321;28;20045;-76
2021/09/14 07:02:14;;;;;;;16.85;9.90;;;;;;;14.02;100.00;95567.06;5048529;28;20048;-76
2021/09/14 07:04:39;;;;;;;18.98;10.50;;;;;;;14.06;100.00;95571.78;5048981;28;20124;-74
2021/09/14 07:07:05;;;;;;;17.98;10.57;;;;;;;14.07;100.00;95568.06;5047874;28;20427;-75
2021/09/14 07:09:30;;;;;;;17.63;10.45;;;;;;;14.11;100.00;95569.06;5048382;28;20047;-74
2021/09/14 07:11:56;;;;;;;20.13;10.32;;;;;;;14.16;100.00;95566.31;5047873;28;20693;-74
2021/09/14 07:14:21;;;;;;;16.52;10.07;;;;;;;14.18;100.00;95559.66;5048220;28;20041;-75
2021/09/14 07:16:47;;;;;;;21.17;10.70;;;;;;;14.34;100.00;95565.47;5048041;28;20059;-75
2021/09/14 07:19:12;;;;;;;18.55;9.82;;;;;;;14.73;100.00;95561.63;5050482;28;20143;-77
2021/09/14 07:21:38;;;;;;;15.68;9.38;;;;;;;15.09;100.00;95564.66;5054980;28;20067;-75
2021/09/14 07:24:04;;;;;;;16.88;9.63;;;;;;;15.01;100.00;95569.56;5063408;28;20045;-75
2021/09/14 07:26:29;;;;;;;24.30;10.75;;;;;;;14.95;100.00;95565.44;5048163;28;20045;-76
2021/09/14 07:28:55;;;;;;;15.85;10.02;;;;;;;14.99;100.00;95565.63;5049497;28;20524;-75
2021/09/14 07:31:21;;;;;;;16.58;10.30;;;;;;;15.04;100.00;95568.16;5059049;28;20129;-75
2021/09/14 07:33:47;;;;;;;16.20;10.40;;;;;;;15.10;100.00;95566.19;5052013;28;20041;-76
2021/09/14 07:36:12;;;;;;;19.85;10.35;;;;;;;15.09;100.00;95565.44;5063660;28;20044;-75
2021/09/14 07:38:40;;;;;;;16.33;9.18;;;;;;;15.12;100.00;95569.38;5050784;28;20036;-75
2021/09/14 07:41:06;;;;;;;15.63;9.85;;;;;;;15.19;100.00;95569.75;5050251;28;20045;-75
2021/09/14 07:43:33;;;;;;;14.43;9.55;;;;;;;15.23;100.00;95570.72;5058759;28;20098;-76
2021/09/14 07:45:58;;;;;;;18.52;10.18;;;;;;;15.69;100.00;95561.75;5061727;28;20102;-76
2021/09/14 07:48:24;;;;;;;24.10;10.48;;;;;;;16.18;97.86;95561.97;5063230;28;20041;-76
2021/09/14 07:50:50;;;;;;;14.45;9.10;;;;;;;16.68;94.95;95563.63;5059879;28;20581;-75
2021/09/14 07:53:16;;;;;;;15.15;8.85;;;;;;;16.80;93.56;95563.03;5065845;28;20082;-79
2021/09/14 07:55:41;;;;;;;14.25;8.95;;;;;;;16.60;95.48;95562.47;5067295;28;20048;-74
2021/09/14 07:58:07;;;;;;;13.77;9.13;;;;;;;16.49;96.55;95565.72;5085723;28;20044;-74
2021/09/14 08:00:32;;;;;;;14.25;8.75;;;;;;;16.51;97.71;95568.84;5085754;28;20109;-74
2021/09/14 08:02:59;;;;;;;20.10;9.80;;;;;;;16.45;96.58;95561.00;5091366;28;20084;-73
2021/09/14 08:05:26;;;;;;;15.55;8.93;;;;;;;16.43;97.33;95568.50;5082871;28;20037;-74
2021/09/14 08:07:51;;;;;;;14.00;9.30;;;;;;;16.63;96.91;95572.47;5075540;28;20123;-75
2021/09/14 08:10:17;;;;;;;15.20;9.02;;;;;;;17.09;94.10;95567.81;5062137;28;20132;-75
2021/09/14 08:12:43;;;;;;;15.07;9.30;;;;;;;16.91;93.59;95571.53;5094276;28;20033;-73
2021/09/14 08:15:10;;;;;;;14.60;9.00;;;;;;;16.85;94.61;95564.75;5081849;28;20120;-75
2021/09/14 08:17:35;;;;;;;16.25;9.57;;;;;;;17.22;91.69;95570.66;5094953;28;20024;-73
2021/09/14 08:20:03;;;;;;;15.18;8.80;;;;;;;17.48;90.85;95570.69;5083026;28;20066;-75
2021/09/14 08:22:28;;;;;;;18.67;9.00;;;;;;;17.42;91.55;95567.41;5051600;28;20053;-75
2021/09/14 08:24:55;;;;;;;20.75;9.30;;;;;;;17.25;92.69;95568.16;5050949;28;20415;-76
2021/09/14 08:27:21;;;;;;;16.25;8.95;;;;;;;17.15;94.07;95565.81;5066435;28;20059;-76
2021/09/14 08:29:47;;;;;;;15.10;9.02;;;;;;;17.53;91.97;95569.75;5058298;28;20123;-77
2021/09/14 08:32:12;;;;;;;15.10;8.25;;;;;;;17.63;89.27;95564.16;5046193;28;20155;-75
2021/09/14 08:34:38;;;;;;;14.57;8.93;;;;;;;17.72;90.26;95567.59;5053466;28;20041;-76
2021/09/14 08:37:04;;;;;;;11.98;8.45;;;;;;;17.61;92.09;95566.31;5053942;28;20048;-76
2021/09/14 08:39:29;;;;;;;17.98;8.95;;;;;;;17.88;89.02;95565.22;5060550;28;20450;-76
2021/09/14 08:41:56;;;;;;;15.68;8.93;;;;;;;18.15;86.41;95558.81;5043297;28;20064;-76
2021/09/14 08:44:21;;;;;;;13.55;8.95;;;;;;;18.31;86.50;95566.28;5048783;28;20060;-78
2021/09/14 08:46:47;;;;;;;15.95;8.60;;;;;;;18.91;83.74;95563.78;5048761;28;20092;-78
2021/09/14 08:49:14;;;;;;;14.05;7.95;;;;;;;18.99;82.91;95569.06;5048077;28;20065;-78
2021/09/14 08:51:40;;;;;;;11.93;8.43;;;;;;;18.95;84.15;95567.34;5056384;28;20060;-78
2021/09/14 08:54:05;;;;;;;12.18;7.97;;;;;;;19.32;80.79;95571.06;5054824;28;20037;-76
2021/09/14 08:56:31;;;;;;;13.57;9.05;;;;;;;19.31;83.68;95568.69;5052432;28;20522;-79
2021/09/14 08:58:58;;;;;;;12.40;8.23;;;;;;;19.43;82.64;95566.13;5061973;28;20070;-80
2021/09/14 09:01:25;;;;;;;12.88;8.40;;;;;;;19.24;82.87;95569.22;5069170;28;20553;-76
2021/09/14 09:03:58;;;;;;;12.93;8.30;;;;;;;19.13;83.49;95574.16;5063946;28;20690;-77
2021/09/14 09:06:37;;;;;;;14.98;8.45;;;;;;;18.94;81.63;95571.13;5064674;28;20036;-78
2021/09/14 09:09:13;;;;;;;12.40;8.38;;;;;;;18.91;83.10;95566.44;5066452;28;20045;-79
2021/09/14 09:11:51;;;;;;;13.23;7.82;;;;;;;19.52;76.30;95569.53;5061118;28;20052;-78
2021/09/14 09:14:17;;;;;;;11.05;7.82;;;;;;;19.46;79.79;95565.47;5053790;28;20752;-77
2021/09/14 09:16:43;;;;;;;12.25;8.07;;;;;;;19.37;78.34;95572.75;5069169;28;20047;-76
2021/09/14 09:19:09;;;;;;;13.23;8.30;;;;;;;19.55;77.61;95568.88;5070224;28;20050;-76
2021/09/14 09:21:38;;;;;;;14.32;8.35;;;;;;;19.53;80.20;95571.06;5060120;28;20036;-76
2021/09/14 09:24:08;;;;;;;11.57;8.30;;;;;;;19.87;79.73;95563.16;5063519;28;20040;-76
2021/09/14 09:26:35;;;;;;;17.33;8.60;;;;;;;19.71;78.98;95560.25;5062528;28;20064;-76
2021/09/14 09:29:04;;;;;;;12.48;8.60;;;;;;;19.75;80.40;95561.16;5060970;28;20045;-76
2021/09/14 09:31:30;;;;;;;11.15;8.02;;;;;;;20.10;78.56;95554.75;5065747;28;20037;-77
2021/09/14 09:34:04;;;;;;;11.98;7.80;;;;;;;20.14;77.49;95559.13;5056372;28;20127;-77
2021/09/14 09:36:33;;;;;;;13.25;8.27;;;;;;;20.70;72.72;95549.91;5049204;28;20037;-77
2021/09/14 09:39:03;;;;;;;11.07;8.18;;;;;;;20.87;72.41;95549.69;5052968;28;20080;-76
2021/09/14 09:41:33;;;;;;;12.40;8.13;;;;;;;20.91;73.58;95549.81;5068720;28;20051;-76
2021/09/14 09:44:11;;;;;;;12.10;7.78;;;;;;;21.48;70.36;95550.75;5051075;28;20071;-77
2021/09/14 09:46:37;;;;;;;16.33;8.65;;;;;;;20.89;72.51;95547.47;5050662;28;20065;-77
2021/09/14 09:49:08;;;;;;;10.82;7.20;;;;;;;21.09;70.54;95545.00;5048649;28;20048;-76
2021/09/14 09:51:34;;;;;;;21.25;9.18;;;;;;;21.07;73.06;95547.22;5063255;28;20127;-75
2021/09/14 09:54:01;;;;;;;16.45;8.13;;;;;;;21.32;71.57;95542.63;5059326;28;20036;-77
2021/09/14 09:56:29;;;;;;;13.18;8.10;;;;;;;21.46;71.03;95534.22;5048881;28;20041;-77
2021/09/14 09:58:55;;;;;;;13.30;8.23;;;;;;;21.51;70.27;95536.72;5061000;28;20041;-76
2021/09/14 10:01:23;;;;;;;12.07;7.85;;;;;;;21.77;70.34;95540.88;5067648;28;20043;-77
2021/09/14 10:04:07;;;;;;;13.63;7.97;;;;;;;22.38;66.35;95536.34;5051754;28;20052;-76
2021/09/14 10:06:37;;;;;;;11.40;7.80;;;;;;;22.76;67.57;95545.72;5060710;28;20139;-76
2021/09/14 10:09:03;;;;;;;11.10;7.65;;;;;;;23.02;66.73;95540.56;5058728;28;20045;-77
2021/09/14 10:11:32;;;;;;;16.25;8.30;;;;;;;23.45;65.04;95537.31;5055729;28;20059;-76
2021/09/14 10:14:04;;;;;;;14.57;7.85;;;;;;;23.97;61.40;95540.66;5062664;28;20041;-77
2021/09/14 10:16:35;;;;;;;16.00;8.57;;;;;;;24.47;60.74;95535.41;5048463;28;20037;-77
2021/09/14 10:19:13;;;;;;;12.70;8.60;;;;;;;25.03;56.97;95524.00;5062177;28;20037;-78
2021/09/14 10:21:43;;;;;;;15.73;8.18;;;;;;;25.04;59.85;95525.56;5057158;28;20560;-77
2021/09/14 10:24:21;;;;;;;12.77;8.57;;;;;;;25.44;57.77;95528.81;5062601;28;20090;-77
2021/09/14 10:26:48;;;;;;;10.68;7.82;;;;;;;25.90;54.47;95519.75;5067996;28;20041;-77
2021/09/14 10:29:16;;;;;;;14.90;8.35;;;;;;;26.28;56.33;95521.31;5063012;28;20076;-77
2021/09/14 10:31:43;;;;;;;11.88;8.00;;;;;;;26.48;56.03;95520.31;5067748;28;20489;-77
2021/09/14 10:34:11;;;;;;;15.00;8.45;;;;;;;26.62;52.98;95517.75;5067786;28;20041;-77
2021/09/14 10:36:40;;;;;;;13.20;8.50;;;;;;;26.33;51.66;95522.91;5057329;28;20106;-77
2021/09/14 10:39:21;;;;;;;11.07;8.48;;;;;;;26.18;51.70;95519.28;5063290;28;20040;-78
2021/09/14 10:41:49;;;;;;;14.85;8.18;;;;;;;26.28;53.04;95520.56;5055185;28;20036;-77
2021/09/14 10:44:24;;;;;;;14.50;8.65;;;;;;;27.05;53.87;95520.03;5050772;28;20033;-77
2021/09/14 10:47:02;;;;;;;13.27;8.00;;;;;;;27.24;51.92;95510.88;5053031;28;20045;-75
2021/09/14 10:49:42;;;;;;;9.60;7.30;;;;;;;28.37;46.25;95510.91;5064147;28;20086;-76
2021/09/14 10:52:07;;;;;;;15.07;8.30;;;;;;;26.34;49.65;95510.97;5052671;28;20049;-77
2021/09/14 10:54:42;;;;;;;13.45;8.30;;;;;;;27.19;49.35;95508.53;5060152;28;20041;-76
2021/09/14 10:57:08;;;;;;;12.65;8.10;;;;;;;27.25;49.35;95507.03;5051214;28;20051;-77
2021/09/14 10:59:34;;;;;;;13.82;7.65;;;;;;;27.68;47.46;95501.06;5067944;28;20075;-78
2021/09/14 11:01:59;;;;;;;13.85;8.00;;;;;;;27.52;48.07;95501.41;5057500;28;20410;-77
2021/09/14 11:04:29;;;;;;;14.70;7.80;;;;;;;27.27;49.51;95500.09;5069069;28;20048;-77
2021/09/14 11:06:55;;;;;;;11.07;7.57;;;;;;;28.51;48.72;95505.50;5048661;28;20052;-77
2021/09/14 11:09:25;;;;;;;11.63;7.53;;;;;;;29.29;43.79;95494.25;5049100;28;20041;-77
2021/09/14 11:11:51;;;;;;;11.25;7.57;;;;;;;29.46;46.11;95498.84;5064736;28;20040;-77
2021/09/14 11:14:17;;;;;;;10.02;6.93;;;;;;;30.02;43.28;95495.53;5069179;28;20045;-78
2021/09/14 11:16:46;;;;;;;11.80;7.38;;;;;;;30.30;42.82;95494.56;5064018;28;20041;-78
2021/09/14 11:19:12;;;;;;;10.02;7.78;;;;;;;30.48;41.05;95499.88;5063803;28;20040;-77
2021/09/14 11:21:46;;;;;;;9.38;7.40;;;;;;;29.88;42.68;95502.59;5071499;28;20080;-76
2021/09/14 11:24:12;;;;;;;10.05;7.70;;;;;;;30.85;40.37;95501.13;5067892;28;20048;-78
2021/09/14 11:26:39;;;;;;;13.45;7.30;;;;;;;31.15;37.99;95502.44;5073015;28;20048;-77
2021/09/14 11:29:04;;;;;;;9.32;7.15;;;;;;;31.08;39.09;95499.81;5061066;28;20045;-78
2021/09/14 11:31:32;;;;;;;8.73;7.03;;;;;;;31.31;37.26;95503.84;5051877;28;20052;-77
2021/09/14 11:33:59;;;;;;;12.85;6.90;;;;;;;30.85;40.09;95506.56;5053016;28;20045;-77
2021/09/14 11:36:26;;;;;;;10.95;7.35;;;;;;;30.38;41.67;95506.16;5063260;28;20502;-77
2021/09/14 11:39:03;;;;;;;11.68;7.75;;;;;;;29.77;42.67;95512.69;5057175;28;20476;-77
2021/09/14 11:41:37;;;;;;;10.32;7.45;;;;;;;30.91;39.46;95499.53;5062689;28;20044;-78
2021/09/14 11:44:05;;;;;;;11.30;7.50;;;;;;;30.03;40.19;95497.06;5052443;28;20045;-77
2021/09/14 11:46:31;;;;;;;9.63;7.40;;;;;;;29.88;42.87;95507.22;5052577;28;20040;-77
2021/09/14 11:49:05;;;;;;;11.18;7.72;;;;;;;28.44;45.62;95507.44;5052487;28;20053;-77
2021/09/14 11:51:40;;;;;;;9.50;7.78;;;;;;;30.63;42.17;95497.06;5064383;28;20040;-77
2021/09/14 11:54:11;;;;;;;10.88;7.32;;;;;;;29.91;42.13;95500.22;5063336;28;20067;-77
2021/09/14 11:56:36;;;;;;;10.10;8.13;;;;;;;29.83;43.06;95494.84;5067285;28;20555;-77
2021/09/14 11:59:02;;;;;;;10.75;7.55;;;;;;;30.33;41.71;95498.41;5053349;28;20040;-77
2021/09/14 12:01:32;;;;;;;14.50;7.68;;;;;;;29.80;42.11;95492.91;5062986;28;20048;-77
2021/09/14 12:03:58;;;;;;;9.85;7.45;;;;;;;29.21;43.12;95494.25;5061827;28;20520;-77
2021/09/14 12:06:50;;;;;;;9.73;7.90;;;;;;;29.65;41.41;95499.56;5056833;28;20055;-77
2021/09/14 12:09:18;;;;;;;9.07;7.18;;;;;;;30.79;39.83;95502.75;5055596;28;20116;-78
2021/09/14 12:11:43;;;;;;;10.80;7.90;;;;;;;31.75;40.32;95494.78;5053947;28;20045;-78